Time;durP1;ratioP1;P1;durP2;ratioP2;P2;SDS_P1;SDS_P2;PMS_P1;PMS_P2;Temp;Humidity;BMP_temperature;BMP_pressure;BME280_temperature;BME280_humidity;BME280_pressure;Samples;Min_cycle;Max_cycle;Signal;HPM_P1;HPM_P2
2022/11/23 00:00:41;;;;;;;30.83;13.43;;;;;;;-0.73;100.00;99618.88;5061859;28;20210;-74
2022/11/23 00:03:07;;;;;;;28.73;14.93;;;;;;;-0.74;100.00;99624.84;5061428;28;20217;-73
2022/11/23 00:05:34;;;;;;;32.27;14.57;;;;;;;-0.76;100.00;99622.25;5049961;28;20211;-73
2022/11/23 00:08:00;;;;;;;31.20;13.93;;;;;;;-0.78;100.00;99622.25;5060011;28;20641;-73
2022/11/23 00:10:27;;;;;;;23.53;12.93;;;;;;;-0.79;100.00;99623.13;5060412;28;20210;-73
2022/11/23 00:12:55;;;;;;;25.00;12.70;;;;;;;-0.80;100.00;99628.22;5064148;28;20233;-74
2022/11/23 00:15:21;;;;;;;27.57;13.23;;;;;;;-0.82;100.00;99630.78;5061853;28;20232;-73
2022/11/23 00:17:48;;;;;;;29.90;13.83;;;;;;;-0.84;100.00;99629.09;5059098;28;20203;-73
2022/11/23 00:20:14;;;;;;;27.40;13.97;;;;;;;-0.85;100.00;99625.66;5042005;28;20514;-73
2022/11/23 00:22:41;;;;;;;24.37;12.90;;;;;;;-0.84;100.00;99622.25;5057947;28;20284;-74
2022/11/23 00:25:08;;;;;;;28.00;13.70;;;;;;;-0.85;100.00;99624.78;5042708;28;20215;-73
2022/11/23 00:27:34;;;;;;;23.27;12.47;;;;;;;-0.85;100.00;99619.69;5061199;28;20213;-73
2022/11/23 00:30:02;;;;;;;24.53;12.00;;;;;;;-0.87;100.00;99622.22;5038619;28;20675;-74
2022/11/23 00:32:29;;;;;;;23.50;12.53;;;;;;;-0.83;100.00;99623.94;5059810;28;20206;-73
2022/11/23 00:34:56;;;;;;;28.20;14.67;;;;;;;-0.84;100.00;99619.69;5062446;28;20222;-74
2022/11/23 00:37:22;;;;;;;26.27;12.90;;;;;;;-0.80;100.00;99629.06;5044487;28;20207;-73
2022/11/23 00:39:49;;;;;;;27.60;13.40;;;;;;;-0.79;100.00;99624.84;5048426;28;20197;-74
2022/11/23 00:42:15;;;;;;;27.03;13.07;;;;;;;-0.78;100.00;99623.97;5044433;28;20299;-73
2022/11/23 00:44:41;;;;;;;29.10;13.37;;;;;;;-0.77;100.00;99634.22;5060194;28;20237;-72
2022/11/23 00:47:09;;;;;;;29.53;13.47;;;;;;;-0.79;100.00;99633.38;5059605;28;20689;-74
2022/11/23 00:49:35;;;;;;;29.10;14.30;;;;;;;-0.81;100.00;99629.94;5038552;28;20194;-74
2022/11/23 00:52:02;;;;;;;33.73;14.03;;;;;;;-0.82;100.00;99632.50;5057236;28;20199;-74
2022/11/23 00:54:28;;;;;;;28.17;12.87;;;;;;;-0.83;100.00;99635.91;5040374;28;20268;-73
2022/11/23 00:56:54;;;;;;;25.20;12.50;;;;;;;-0.81;100.00;99631.63;5054818;28;20195;-73
2022/11/23 00:59:22;;;;;;;30.83;14.20;;;;;;;-0.81;100.00;99631.63;5043851;28;20201;-74
2022/11/23 01:01:48;;;;;;;29.47;13.53;;;;;;;-0.83;100.00;99631.63;5060278;28;20199;-73
2022/11/23 01:04:16;;;;;;;28.80;13.83;;;;;;;-0.83;100.00;99625.66;5059171;28;20211;-74
2022/11/23 01:06:43;;;;;;;29.57;13.93;;;;;;;-0.84;100.00;99627.38;5029972;28;20201;-73
2022/11/23 01:09:13;;;;;;;26.17;13.23;;;;;;;-0.85;100.00;99622.25;4963792;28;20226;-73
2022/11/23 01:11:39;;;;;;;28.10;12.40;;;;;;;-0.88;100.00;99624.78;5059717;28;20195;-74
2022/11/23 01:14:06;;;;;;;26.37;13.27;;;;;;;-0.93;100.00;99627.34;5046803;28;20225;-73
2022/11/23 01:16:35;;;;;;;24.90;12.87;;;;;;;-0.92;100.00;99623.91;5047348;28;20221;-73
2022/11/23 01:19:04;;;;;;;25.63;12.70;;;;;;;-0.93;100.00;99623.91;5063820;28;20198;-74
2022/11/23 01:21:33;;;;;;;27.63;12.67;;;;;;;-0.94;100.00;99629.88;5058811;28;20221;-73
2022/11/23 01:23:59;;;;;;;28.57;13.47;;;;;;;-0.94;100.00;99630.72;5046144;28;20694;-73
2022/11/23 01:26:26;;;;;;;24.13;11.73;;;;;;;-0.98;100.00;99629.88;5065747;28;20195;-73
2022/11/23 01:28:52;;;;;;;20.40;10.40;;;;;;;-1.01;100.00;99626.44;5062072;28;20245;-73
2022/11/23 01:31:24;;;;;;;22.20;10.73;;;;;;;-1.01;100.00;99622.16;5047964;28;20203;-72
2022/11/23 01:33:53;;;;;;;26.03;11.13;;;;;;;-1.04;100.00;99618.72;5065669;28;20220;-74
2022/11/23 01:36:21;;;;;;;25.70;12.30;;;;;;;-1.13;100.00;99618.69;5060158;28;20558;-74
2022/11/23 01:38:51;;;;;;;21.47;11.67;;;;;;;-1.17;100.00;99621.22;5061432;28;20195;-73
2022/11/23 01:41:20;;;;;;;18.40;9.43;;;;;;;-1.17;100.00;99622.94;5065421;28;20300;-73
2022/11/23 01:43:48;;;;;;;23.37;12.47;;;;;;;-1.18;100.00;99627.22;5042312;28;20639;-73
2022/11/23 01:46:14;;;;;;;21.83;11.47;;;;;;;-1.16;100.00;99632.34;5059500;28;20193;-73
2022/11/23 01:48:44;;;;;;;23.60;11.97;;;;;;;-1.20;100.00;99621.19;5039697;28;20222;-73
2022/11/23 01:51:14;;;;;;;22.07;11.07;;;;;;;-1.23;100.00;99625.44;5063880;28;20194;-74
2022/11/23 01:53:42;;;;;;;24.23;11.70;;;;;;;-1.28;100.00;99617.75;5067629;28;20212;-74
2022/11/23 01:56:15;;;;;;;20.93;11.90;;;;;;;-1.35;100.00;99631.38;5060311;28;20198;-74
2022/11/23 01:58:47;;;;;;;23.17;11.57;;;;;;;-1.37;100.00;99633.06;5045830;28;20203;-73
2022/11/23 02:01:14;;;;;;;21.67;10.90;;;;;;;-1.38;100.00;99633.91;5059386;28;20210;-74
2022/11/23 02:03:43;;;;;;;21.00;11.10;;;;;;;-1.42;100.00;99640.69;5063851;28;20198;-73
2022/11/23 02:06:13;;;;;;;27.23;11.30;;;;;;;-1.45;100.00;99640.66;5041499;28;20203;-73
2022/11/23 02:08:41;;;;;;;23.50;11.00;;;;;;;-1.53;100.00;99632.06;5064658;28;20218;-73
2022/11/23 02:11:08;;;;;;;26.87;12.20;;;;;;;-1.56;100.00;99630.38;5044804;28;20401;-73
2022/11/23 02:13:35;;;;;;;20.30;10.70;;;;;;;-1.57;100.00;99631.19;5065893;28;20233;-73
2022/11/23 02:16:02;;;;;;;25.03;11.83;;;;;;;-1.55;100.00;99633.78;5040095;28;20202;-73
2022/11/23 02:18:31;;;;;;;21.27;10.90;;;;;;;-1.54;100.00;99646.56;5060929;28;20272;-73
2022/11/23 02:20:59;;;;;;;23.83;10.43;;;;;;;-1.57;100.00;99638.03;5042533;28;20276;-74
2022/11/23 02:23:36;;;;;;;21.53;10.73;;;;;;;-1.62;100.00;99644.81;5046142;28;20202;-73
2022/11/23 02:26:07;;;;;;;19.60;9.33;;;;;;;-1.68;100.00;99645.63;5037915;28;20207;-73
2022/11/23 02:28:37;;;;;;;20.93;11.07;;;;;;;-1.70;100.00;99646.47;5024767;28;20309;-73
2022/11/23 02:31:06;;;;;;;24.40;11.43;;;;;;;-1.72;100.00;99649.84;5042348;28;20199;-73
2022/11/23 02:33:32;;;;;;;21.40;11.20;;;;;;;-1.84;100.00;99644.63;5064034;28;20548;-73
2022/11/23 02:36:00;;;;;;;23.87;11.77;;;;;;;-1.97;100.00;99645.34;5042858;28;20222;-72
2022/11/23 02:38:32;;;;;;;19.70;10.20;;;;;;;-2.02;100.00;99647.00;5065146;28;20198;-73
2022/11/23 02:41:00;;;;;;;19.53;10.70;;;;;;;-2.10;100.00;99646.94;5044276;28;20226;-73
2022/11/23 02:43:29;;;;;;;19.40;10.30;;;;;;;-2.16;100.00;99652.88;5051518;28;20186;-74
2022/11/23 02:45:57;;;;;;;20.60;10.80;;;;;;;-2.18;100.00;99646.88;5059151;28;20208;-71
2022/11/23 02:48:24;;;;;;;20.10;10.80;;;;;;;-2.25;100.00;99640.00;5044583;28;20584;-73
2022/11/23 02:50:51;;;;;;;19.47;10.03;;;;;;;-2.22;100.00;99645.13;5063470;28;20203;-72
2022/11/23 02:53:18;;;;;;;19.27;9.53;;;;;;;-2.21;100.00;99643.44;5062620;28;20678;-73
2022/11/23 02:55:45;;;;;;;19.63;9.63;;;;;;;-2.30;100.00;99647.63;5061050;28;20223;-73
2022/11/23 02:58:11;;;;;;;19.53;10.33;;;;;;;-2.35;100.00;99643.31;5037139;28;20195;-73
2022/11/23 03:00:39;;;;;;;22.17;10.50;;;;;;;-2.44;100.00;99648.31;5041172;28;20222;-73
2022/11/23 03:03:06;;;;;;;21.33;10.03;;;;;;;-2.40;100.00;99650.06;5057006;28;20273;-73
2022/11/23 03:05:32;;;;;;;21.20;10.13;;;;;;;-2.44;100.00;99641.50;4955654;28;20207;-72
2022/11/23 03:08:04;;;;;;;22.43;10.50;;;;;;;-2.38;100.00;99644.09;5040091;28;20876;-72
2022/11/23 03:10:30;;;;;;;23.07;11.20;;;;;;;-2.35;100.00;99646.72;5058079;28;20191;-73
2022/11/23 03:12:57;;;;;;;21.47;10.03;;;;;;;-2.25;100.00;99646.78;5046469;28;20195;-73
2022/11/23 03:15:25;;;;;;;18.63;10.47;;;;;;;-2.12;100.00;99652.03;5041327;28;20210;-73
2022/11/23 03:17:53;;;;;;;21.20;10.33;;;;;;;-2.11;100.00;99646.09;5061444;28;20209;-72
2022/11/23 03:20:20;;;;;;;21.10;10.67;;;;;;;-2.10;100.00;99652.06;5040321;28;20250;-73
2022/11/23 03:22:49;;;;;;;21.60;10.20;;;;;;;-2.10;100.00;99654.63;5036931;28;20199;-73
2022/11/23 03:25:17;;;;;;;21.50;11.80;;;;;;;-2.14;100.00;99669.06;5041642;28;20214;-73
2022/11/23 03:27:46;;;;;;;17.97;9.87;;;;;;;-2.21;100.00;99680.06;5043067;28;20285;-73
2022/11/23 03:30:14;;;;;;;22.73;10.80;;;;;;;-2.28;100.00;99681.69;5061517;28;20276;-72
2022/11/23 03:32:40;;;;;;;22.07;10.70;;;;;;;-2.34;100.00;99678.19;5039440;28;20199;-71
2022/11/23 03:35:10;;;;;;;20.37;10.57;;;;;;;-2.35;100.00;99690.09;5040474;28;20726;-73
2022/11/23 03:37:48;;;;;;;23.20;10.50;;;;;;;-2.37;100.00;99691.78;5041136;28;20196;-73
2022/11/23 03:40:15;;;;;;;22.80;11.67;;;;;;;-2.40;100.00;99696.84;5041933;28;20670;-73
2022/11/23 03:43:07;;;;;;;27.37;11.67;;;;;;;-2.41;100.00;99695.16;5043413;28;20205;-72
2022/11/23 03:45:33;;;;;;;25.93;12.27;;;;;;;-2.41;100.00;99702.81;5038891;28;20246;-72
2022/11/23 03:48:00;;;;;;;29.40;12.13;;;;;;;-2.52;100.00;99700.13;5061298;28;20744;-72
2022/11/23 03:50:28;;;;;;;27.17;13.07;;;;;;;-2.56;100.00;99695.81;5043448;28;20811;-73
2022/11/23 03:52:55;;;;;;;29.10;15.77;;;;;;;-2.57;100.00;99699.22;5036860;28;20226;-72
2022/11/23 03:55:22;;;;;;;35.67;16.80;;;;;;;-2.53;100.00;99692.47;5039096;28;20785;-73
2022/11/23 03:57:49;;;;;;;30.97;16.57;;;;;;;-2.47;100.00;99688.25;5032862;28;20199;-72
2022/11/23 04:00:16;;;;;;;28.50;14.30;;;;;;;-2.50;100.00;99690.81;5059104;28;20520;-72
2022/11/23 04:02:45;;;;;;;29.67;13.87;;;;;;;-2.48;100.00;99686.56;5052694;28;20191;-72
2022/11/23 04:05:33;;;;;;;21.50;11.90;;;;;;;-2.63;100.00;99688.94;5052115;28;20240;-73
2022/11/23 04:08:17;;;;;;;27.37;12.63;;;;;;;-2.55;100.00;99691.56;5055748;28;20735;-72
2022/11/23 04:10:44;;;;;;;18.47;10.50;;;;;;;-2.74;100.00;99691.34;5044902;28;20290;-72
2022/11/23 04:13:14;;;;;;;21.17;10.10;;;;;;;-2.77;100.00;99682.81;5045373;28;20214;-71
2022/11/23 04:15:41;;;;;;;17.73;9.97;;;;;;;-2.80;100.00;99686.16;5060179;28;20230;-72
2022/11/23 04:18:08;;;;;;;19.43;10.70;;;;;;;-2.83;100.00;99686.13;5044118;28;20199;-73
2022/11/23 04:20:38;;;;;;;22.43;9.77;;;;;;;-2.89;100.00;99688.59;5053783;28;20203;-73
2022/11/23 04:23:04;;;;;;;21.40;10.57;;;;;;;-2.90;100.00;99687.75;5059978;28;21226;-72
2022/11/23 04:25:31;;;;;;;23.17;10.80;;;;;;;-2.88;100.00;99688.63;5045501;28;20214;-73
2022/11/23 04:27:58;;;;;;;20.17;10.93;;;;;;;-2.80;100.00;99683.59;5035713;28;20294;-72
2022/11/23 04:30:25;;;;;;;22.63;10.17;;;;;;;-2.89;100.00;99694.53;5055425;28;20210;-72
2022/11/23 04:32:55;;;;;;;20.93;9.47;;;;;;;-2.83;100.00;99681.03;5040292;28;20191;-72
2022/11/23 04:35:22;;;;;;;20.83;10.03;;;;;;;-2.76;100.00;99680.28;5043169;22;20237;-71
2022/11/23 04:37:51;;;;;;;19.93;9.43;;;;;;;-2.68;100.00;99680.34;5019714;28;20213;-70
2022/11/23 04:40:18;;;;;;;19.30;9.53;;;;;;;-2.69;100.00;99683.72;4959575;28;20210;-69
2022/11/23 04:42:56;;;;;;;25.13;10.17;;;;;;;-2.71;100.00;99690.53;5030830;28;20673;-71
2022/11/23 04:45:22;;;;;;;18.63;10.00;;;;;;;-2.77;100.00;99685.34;5023564;28;20226;-70
2022/11/23 04:47:49;;;;;;;17.57;9.47;;;;;;;-2.79;100.00;99687.88;5008654;28;20217;-69
2022/11/23 04:50:17;;;;;;;23.27;11.53;;;;;;;-2.84;100.00;99696.31;5028682;28;20489;-70
2022/11/23 04:52:48;;;;;;;31.90;13.97;;;;;;;-2.82;100.00;99695.50;4943328;28;20207;-71
2022/11/23 04:55:20;;;;;;;32.07;14.00;;;;;;;-2.73;100.00;99692.19;5013951;28;20289;-71
2022/11/23 04:57:54;;;;;;;37.17;14.63;;;;;;;-2.71;100.00;99688.84;5021245;28;20225;-71
2022/11/23 05:00:22;;;;;;;32.70;14.20;;;;;;;-2.68;100.00;99685.47;5010312;28;20285;-71
2022/11/23 05:02:48;;;;;;;25.87;13.27;;;;;;;-2.70;100.00;99690.53;5006546;28;20264;-71
2022/11/23 05:05:24;;;;;;;24.33;11.83;;;;;;;-2.68;100.00;99682.91;5031284;28;20671;-71
2022/11/23 05:07:51;;;;;;;28.60;12.23;;;;;;;-2.64;100.00;99671.03;5013302;28;20778;-71
2022/11/23 05:10:21;;;;;;;22.37;12.00;;;;;;;-2.56;100.00;99677.09;5013375;28;20586;-71
2022/11/23 05:12:48;;;;;;;24.53;11.30;;;;;;;-2.55;100.00;99672.03;5007684;28;20629;-71
2022/11/23 05:15:15;;;;;;;26.83;11.50;;;;;;;-2.54;100.00;99686.47;5009431;28;20223;-71
2022/11/23 05:17:42;;;;;;;22.90;11.07;;;;;;;-2.60;100.00;99688.97;5005132;28;20776;-70
2022/11/23 05:20:15;;;;;;;19.20;10.03;;;;;;;-2.67;100.00;99699.94;5012450;28;20191;-70
2022/11/23 05:22:46;;;;;;;19.67;10.87;;;;;;;-2.73;100.00;99694.75;5024421;28;20698;-70
2022/11/23 05:25:16;;;;;;;23.10;10.00;;;;;;;-2.69;100.00;99692.28;5011961;28;20246;-70
2022/11/23 05:27:45;;;;;;;23.00;12.50;;;;;;;-2.65;100.00;99684.66;4997313;28;20217;-71
2022/11/23 05:30:14;;;;;;;20.37;10.63;;;;;;;-2.60;100.00;99683.00;5007917;28;20219;-69
2022/11/23 05:32:41;;;;;;;21.83;12.40;;;;;;;-2.58;100.00;99678.78;5009300;28;20214;-70
2022/11/23 05:35:08;;;;;;;23.53;11.53;;;;;;;-2.58;100.00;99681.34;5011067;28;20237;-70
2022/11/23 05:37:36;;;;;;;22.80;11.37;;;;;;;-2.63;100.00;99681.28;4981940;28;20450;-71
2022/11/23 05:40:07;;;;;;;20.70;10.77;;;;;;;-2.55;100.00;99683.91;5016606;28;20207;-71
2022/11/23 05:42:35;;;;;;;20.77;11.00;;;;;;;-2.57;100.00;99688.13;5008534;28;20206;-70
2022/11/23 05:45:11;;;;;;;19.83;10.23;;;;;;;-2.55;100.00;99687.34;5013499;28;20299;-70
2022/11/23 05:47:41;;;;;;;20.10;10.53;;;;;;;-2.51;100.00;99690.78;4997763;28;20217;-71
2022/11/23 05:50:17;;;;;;;21.13;10.10;;;;;;;-2.44;100.00;99682.34;5021594;28;20658;-71
2022/11/23 05:52:45;;;;;;;19.97;11.20;;;;;;;-2.45;100.00;99684.88;5003082;28;20303;-71
2022/11/23 05:55:12;;;;;;;24.67;11.17;;;;;;;-2.45;100.00;99685.72;5018105;28;20241;-71
2022/11/23 05:57:39;;;;;;;19.37;10.03;;;;;;;-2.41;100.00;99686.63;5006330;28;20216;-70
2022/11/23 06:00:09;;;;;;;27.23;12.20;;;;;;;-2.42;100.00;99682.38;5001509;28;20718;-71
2022/11/23 06:02:51;;;;;;;20.70;10.23;;;;;;;-2.41;100.00;99686.63;4995252;28;20370;-70
2022/11/23 06:05:18;;;;;;;20.73;9.97;;;;;;;-2.38;100.00;99687.50;4938229;28;20234;-69
2022/11/23 06:07:52;;;;;;;22.80;10.27;;;;;;;-2.38;100.00;99682.41;4939974;28;20222;-71
2022/11/23 06:10:23;;;;;;;19.60;11.27;;;;;;;-2.33;100.00;99682.47;5020503;28;20236;-70
2022/11/23 06:12:51;;;;;;;22.53;10.63;;;;;;;-2.30;100.00;99677.41;5003727;28;20211;-70
2022/11/23 06:15:19;;;;;;;18.83;9.93;;;;;;;-2.26;100.00;99680.84;5008521;28;20218;-71
2022/11/23 06:17:47;;;;;;;23.33;11.37;;;;;;;-2.27;100.00;99674.88;5024947;28;20217;-71
2022/11/23 06:20:19;;;;;;;18.97;9.60;;;;;;;-2.23;100.00;99686.84;5007727;28;20223;-70
2022/11/23 06:22:55;;;;;;;21.33;10.87;;;;;;;-2.20;100.00;99684.34;5008760;28;20230;-69
2022/11/23 06:25:24;;;;;;;20.83;9.40;;;;;;;-2.18;100.00;99680.09;4942577;28;20226;-70
2022/11/23 06:28:13;;;;;;;23.47;10.93;;;;;;;-2.15;100.00;99686.91;5011632;28;20203;-71
2022/11/23 06:30:45;;;;;;;25.73;10.90;;;;;;;-2.12;100.00;99695.47;5012611;28;20706;-70
2022/11/23 06:33:12;;;;;;;21.23;10.27;;;;;;;-2.03;100.00;99698.97;4942349;28;20210;-71
2022/11/23 06:35:54;;;;;;;21.23;11.00;;;;;;;-2.03;100.00;99691.31;5006322;28;20243;-71
2022/11/23 06:38:23;;;;;;;19.03;10.50;;;;;;;-2.00;100.00;99704.13;5011015;28;20298;-70
2022/11/23 06:40:58;;;;;;;22.80;11.33;;;;;;;-1.96;100.00;99699.03;5006004;28;20622;-70
2022/11/23 06:43:25;;;;;;;22.07;12.80;;;;;;;-1.93;100.00;99706.72;5024411;28;20660;-70
2022/11/23 06:45:52;;;;;;;21.83;11.00;;;;;;;-1.91;100.00;99699.09;5008028;28;20230;-71
2022/11/23 06:48:18;;;;;;;23.40;11.93;;;;;;;-1.91;100.00;99702.50;4939731;29;20549;-71
2022/11/23 06:50:47;;;;;;;26.97;12.03;;;;;;;-1.85;100.00;99704.25;5007853;28;20606;-71
2022/11/23 06:53:16;;;;;;;28.03;11.10;;;;;;;-1.83;100.00;99706.81;5009151;28;20644;-70
2022/11/23 06:55:47;;;;;;;22.70;11.17;;;;;;;-1.80;100.00;99710.25;5005765;28;20445;-70
2022/11/23 06:58:16;;;;;;;23.40;11.93;;;;;;;-1.69;100.00;99702.69;5006400;28;20208;-71
2022/11/23 07:00:44;;;;;;;27.80;14.30;;;;;;;-1.65;100.00;99711.22;5010559;28;20266;-71
2022/11/23 07:03:19;;;;;;;29.37;14.30;;;;;;;-1.62;100.00;99716.38;4938729;29;20675;-71
2022/11/23 07:05:46;;;;;;;24.70;13.47;;;;;;;-1.61;100.00;99718.94;5005331;28;20674;-69
2022/11/23 07:08:12;;;;;;;32.17;15.83;;;;;;;-1.63;100.00;99723.19;5003905;28;20211;-70
2022/11/23 07:10:40;;;;;;;60.97;27.97;;;;;;;-1.60;100.00;99732.56;5004206;28;20218;-71
2022/11/23 07:13:10;;;;;;;57.07;26.83;;;;;;;-1.56;100.00;99729.22;5008884;28;20196;-72
2022/11/23 07:15:38;;;;;;;42.93;19.53;;;;;;;-1.54;100.00;99724.97;5005995;28;20272;-71
2022/11/23 07:18:06;;;;;;;31.57;14.20;;;;;;;-1.53;100.00;99731.78;5007480;28;20203;-71
2022/11/23 07:20:34;;;;;;;35.57;16.13;;;;;;;-1.50;100.00;99736.94;5007816;28;20226;-71
2022/11/23 07:23:04;;;;;;;28.70;13.10;;;;;;;-1.46;100.00;99732.69;5006925;28;20203;-70
2022/11/23 07:25:34;;;;;;;25.30;12.40;;;;;;;-1.40;100.00;99736.19;4989991;28;20725;-71
2022/11/23 07:28:05;;;;;;;24.40;11.77;;;;;;;-1.36;100.00;99737.91;5004815;28;20645;-71
2022/11/23 07:30:32;;;;;;;23.23;11.07;;;;;;;-1.28;100.00;99739.69;4943183;28;20206;-70
2022/11/23 07:33:00;;;;;;;27.27;11.47;;;;;;;-1.25;100.00;99739.69;5006477;28;20199;-70
2022/11/23 07:35:27;;;;;;;24.20;11.23;;;;;;;-1.20;100.00;99743.16;5005795;28;20527;-71
2022/11/23 07:37:54;;;;;;;25.57;11.50;;;;;;;-1.19;100.00;99740.59;5005455;28;20215;-71
2022/11/23 07:40:20;;;;;;;26.50;13.03;;;;;;;-1.18;100.00;99742.34;5003534;28;20214;-71
2022/11/23 07:42:47;;;;;;;21.37;11.23;;;;;;;-1.15;100.00;99746.59;5004848;28;20245;-71
2022/11/23 07:45:16;;;;;;;22.17;11.97;;;;;;;-1.11;100.00;99752.59;5001674;28;20227;-71
2022/11/23 07:47:48;;;;;;;22.00;11.97;;;;;;;-1.06;100.00;99754.34;4942200;28;20194;-71
2022/11/23 07:50:14;;;;;;;30.43;13.37;;;;;;;-1.03;100.00;99754.34;4939236;29;20219;-70
2022/11/23 07:52:41;;;;;;;24.03;12.37;;;;;;;-1.03;100.00;99749.25;4943307;28;20210;-71
2022/11/23 07:55:09;;;;;;;25.13;11.77;;;;;;;-1.00;100.00;99750.97;4940547;28;20222;-71
2022/11/23 07:57:35;;;;;;;26.40;11.70;;;;;;;-0.95;100.00;99749.28;5007945;28;20218;-71
2022/11/23 08:00:02;;;;;;;25.83;12.40;;;;;;;-0.92;100.00;99751.03;4937164;28;20203;-71
2022/11/23 08:02:40;;;;;;;23.40;12.27;;;;;;;-0.88;100.00;99745.94;4942442;28;20218;-71
2022/11/23 08:05:07;;;;;;;25.83;13.50;;;;;;;-0.83;100.00;99746.81;4938734;29;20567;-70
2022/11/23 08:07:33;;;;;;;25.53;12.10;;;;;;;-0.76;100.00;99752.81;4935416;28;20203;-70
2022/11/23 08:09:59;;;;;;;33.97;14.33;;;;;;;-0.69;100.00;99746.03;5003202;28;20379;-72
2022/11/23 08:12:26;;;;;;;31.30;15.17;;;;;;;-0.66;100.00;99744.34;4940074;28;20199;-70
2022/11/23 08:14:52;;;;;;;25.87;13.67;;;;;;;-0.64;100.00;99749.47;4941330;28;20238;-71
2022/11/23 08:17:19;;;;;;;28.57;13.67;;;;;;;-0.62;100.00;99746.06;4934309;28;20205;-71
2022/11/23 08:19:47;;;;;;;34.10;14.70;;;;;;;-0.59;100.00;99748.66;4942752;28;20678;-71
2022/11/23 08:22:13;;;;;;;28.90;12.93;;;;;;;-0.51;100.00;99751.28;4939329;28;20198;-71
2022/11/23 08:24:39;;;;;;;31.17;14.03;;;;;;;-0.49;100.00;99743.56;4937000;29;20305;-71
2022/11/23 08:27:06;;;;;;;29.80;14.60;;;;;;;-0.49;100.00;99748.69;4940602;28;20965;-71
2022/11/23 08:29:32;;;;;;;32.57;15.23;;;;;;;-0.45;100.00;99737.63;4942036;28;20683;-70
2022/11/23 08:31:58;;;;;;;34.23;15.47;;;;;;;-0.43;100.00;99741.06;4939554;28;20292;-71
2022/11/23 08:34:25;;;;;;;27.83;14.50;;;;;;;-0.45;100.00;99737.63;4940621;29;20434;-70
2022/11/23 08:36:53;;;;;;;32.33;15.10;;;;;;;-0.43;100.00;99744.47;4996845;28;20211;-70
2022/11/23 08:39:19;;;;;;;33.73;14.77;;;;;;;-0.36;100.00;99752.19;4938724;28;20281;-70
2022/11/23 08:41:45;;;;;;;34.07;15.07;;;;;;;-0.34;100.00;99753.03;4943224;28;20278;-71
2022/11/23 08:44:12;;;;;;;33.27;17.23;;;;;;;-0.34;100.00;99748.78;4943041;28;20203;-71
2022/11/23 08:46:39;;;;;;;37.37;15.93;;;;;;;-0.31;100.00;99753.06;4940584;28;20206;-70
2022/11/23 08:49:06;;;;;;;35.63;15.50;;;;;;;-0.30;100.00;99747.06;4938749;28;20206;-70
2022/11/23 08:51:33;;;;;;;32.13;15.67;;;;;;;-0.27;100.00;99755.63;4938395;28;20222;-70
2022/11/23 08:54:00;;;;;;;28.03;12.43;;;;;;;-0.25;100.00;99758.19;4936716;29;20209;-70
2022/11/23 08:56:27;;;;;;;27.63;13.20;;;;;;;-0.20;100.00;99759.91;5001860;28;20702;-70
2022/11/23 08:58:53;;;;;;;35.33;16.90;;;;;;;-0.16;100.00;99767.63;4937658;28;20783;-70
2022/11/23 09:01:19;;;;;;;35.07;15.87;;;;;;;-0.13;100.00;99765.94;4941150;29;20200;-69
2022/11/23 09:03:46;;;;;;;36.80;15.20;;;;;;;-0.08;100.00;99768.53;4937920;29;20202;-69
2022/11/23 09:06:12;;;;;;;36.17;16.50;;;;;;;-0.03;100.00;99766.84;4942784;29;20214;-69
2022/11/23 09:08:39;;;;;;;32.17;15.30;;;;;;;0.00;100.00;99771.97;4939474;28;20213;-70
2022/11/23 09:11:09;;;;;;;36.60;18.93;;;;;;;0.06;100.00;99768.56;5003088;28;20679;-69
2022/11/23 09:13:36;;;;;;;35.53;18.80;;;;;;;0.13;100.00;99773.72;4936992;28;20667;-71
2022/11/23 09:16:04;;;;;;;39.97;18.17;;;;;;;0.22;100.00;99769.47;4934076;28;20254;-69
2022/11/23 09:18:32;;;;;;;40.07;15.63;;;;;;;0.28;100.00;99777.16;4940011;28;20206;-71
2022/11/23 09:20:58;;;;;;;33.20;15.57;;;;;;;0.37;100.00;99775.47;4939077;28;20566;-70
2022/11/23 09:23:26;;;;;;;32.10;15.10;;;;;;;0.46;100.00;99784.03;4938878;29;20285;-70
2022/11/23 09:25:53;;;;;;;35.13;14.83;;;;;;;0.55;100.00;99784.91;4939046;28;20279;-69
2022/11/23 09:28:23;;;;;;;37.33;15.77;;;;;;;0.65;100.00;99787.47;4936324;28;20917;-70
2022/11/23 09:30:49;;;;;;;39.23;17.30;;;;;;;0.74;100.00;99779.81;4940834;29;20230;-70
2022/11/23 09:33:16;;;;;;;33.57;16.27;;;;;;;0.85;100.00;99777.22;4946759;28;20629;-70
2022/11/23 09:35:42;;;;;;;33.57;14.83;;;;;;;0.95;100.00;99773.81;4936952;29;20234;-68
2022/11/23 09:38:08;;;;;;;29.50;15.33;;;;;;;1.06;100.00;99771.25;4952314;28;20200;-70
2022/11/23 09:40:38;;;;;;;36.23;15.77;;;;;;;1.18;100.00;99773.78;4938819;29;20198;-70
2022/11/23 09:43:22;;;;;;;35.03;16.33;;;;;;;1.31;100.00;99767.75;4947314;28;20206;-70
2022/11/23 09:45:52;;;;;;;27.53;13.80;;;;;;;1.44;100.00;99765.16;4943456;29;20638;-71
2022/11/23 09:48:28;;;;;;;32.67;15.43;;;;;;;1.55;100.00;99771.13;4946322;28;20276;-70
2022/11/23 09:50:59;;;;;;;30.40;14.60;;;;;;;1.63;100.00;99764.25;4941248;29;20211;-70
2022/11/23 09:53:33;;;;;;;31.93;14.83;;;;;;;1.72;100.00;99758.22;5009744;28;20207;-70
2022/11/23 09:55:59;;;;;;;32.37;15.40;;;;;;;1.80;100.00;99759.03;4942653;28;20226;-69
2022/11/23 09:58:33;;;;;;;33.43;16.17;;;;;;;1.87;100.00;99755.59;4939643;29;20207;-69
2022/11/23 10:01:04;;;;;;;44.07;17.33;;;;;;;1.95;100.00;99757.25;5006266;28;20294;-69
2022/11/23 10:03:35;;;;;;;40.17;16.63;;;;;;;2.01;100.00;99755.53;4943404;29;20226;-69
2022/11/23 10:06:07;;;;;;;40.67;17.27;;;;;;;2.07;100.00;99758.03;4941861;28;20621;-69
2022/11/23 10:08:39;;;;;;;35.83;17.33;;;;;;;2.13;100.00;99749.47;5008171;28;20241;-69
2022/11/23 10:11:24;;;;;;;42.77;18.40;;;;;;;2.22;100.00;99748.56;4942764;29;20242;-69
2022/11/23 10:14:00;;;;;;;38.67;18.97;;;;;;;2.29;100.00;99750.22;4943883;29;20532;-70
2022/11/23 10:16:39;;;;;;;42.70;17.60;;;;;;;2.38;100.00;99747.59;4938852;28;20226;-70
2022/11/23 10:19:17;;;;;;;39.00;16.93;;;;;;;2.46;100.00;99748.41;4944466;28;20213;-70
2022/11/23 10:21:54;;;;;;;39.90;16.97;;;;;;;2.54;100.00;99738.03;4941490;28;20203;-70
2022/11/23 10:24:27;;;;;;;37.73;15.93;;;;;;;2.62;100.00;99738.84;4944026;28;20195;-70
2022/11/23 10:26:54;;;;;;;35.87;15.53;;;;;;;2.70;100.00;99737.94;4938617;28;20294;-69
2022/11/23 10:29:28;;;;;;;37.70;16.20;;;;;;;2.77;100.00;99737.84;4944282;28;20568;-70
2022/11/23 10:31:57;;;;;;;32.87;14.67;;;;;;;2.82;100.00;99738.66;4943724;28;20222;-70
2022/11/23 10:34:35;;;;;;;39.30;14.77;;;;;;;2.91;100.00;99739.47;4940810;29;20662;-70
2022/11/23 10:37:01;;;;;;;37.97;16.00;;;;;;;2.98;100.00;99743.69;4958346;22;20737;-73
2022/11/23 10:39:30;;;;;;;40.77;17.07;;;;;;;3.06;100.00;99744.47;5016560;28;20197;-72
2022/11/23 10:42:02;;;;;;;33.40;15.50;;;;;;;3.14;100.00;99737.50;5014944;28;20204;-72
2022/11/23 10:44:31;;;;;;;38.57;15.83;;;;;;;3.19;100.00;99740.91;5015857;28;20204;-73
2022/11/23 10:46:59;;;;;;;32.70;14.80;;;;;;;3.26;100.00;99740.84;5033180;28;20223;-71
2022/11/23 10:49:28;;;;;;;43.57;15.97;;;;;;;3.33;100.00;99739.91;5039730;28;20459;-73
2022/11/23 10:51:56;;;;;;;33.83;14.70;;;;;;;3.40;100.00;99736.41;5035319;28;20223;-72
2022/11/23 10:54:30;;;;;;;39.30;15.60;;;;;;;3.43;100.00;99733.78;5032085;28;20196;-73
2022/11/23 10:56:58;;;;;;;39.03;16.20;;;;;;;3.48;100.00;99739.72;5029664;28;20665;-72
2022/11/23 10:59:38;;;;;;;32.63;13.93;;;;;;;3.53;100.00;99739.69;5034024;28;20288;-73
2022/11/23 11:02:18;;;;;;;37.03;14.73;;;;;;;3.57;100.00;99725.88;5033832;28;20619;-72
2022/11/23 11:04:46;;;;;;;40.70;14.50;;;;;;;3.61;100.00;99735.31;5034767;28;20232;-72
2022/11/23 11:07:22;;;;;;;44.80;16.03;;;;;;;3.60;100.00;99738.75;5034131;28;20227;-72
2022/11/23 11:09:51;;;;;;;38.27;15.90;;;;;;;3.62;100.00;99739.56;5031440;28;20207;-71
2022/11/23 11:12:17;;;;;;;41.33;15.43;;;;;;;3.62;100.00;99741.31;5030978;28;20204;-72
2022/11/23 11:14:55;;;;;;;39.17;14.87;;;;;;;3.63;100.00;99732.72;5036667;28;20207;-73
2022/11/23 11:17:28;;;;;;;54.17;25.03;;;;;;;3.65;100.00;99730.97;5031922;28;20675;-73
2022/11/23 11:19:54;;;;;;;36.80;17.13;;;;;;;3.66;100.00;99730.06;5036784;28;20208;-73